Time;durP1;ratioP1;P1;durP2;ratioP2;P2;SDS_P1;SDS_P2;PMS_P1;PMS_P2;Temp;Humidity;BMP_temperature;BMP_pressure;BME280_temperature;BME280_humidity;BME280_pressure;Samples;Min_cycle;Max_cycle;Signal;HPM_P1;HPM_P2
2023/07/26 00:02:03;;;;;;;1.67;1.57;;;19.00;78.20;18.30;95841.00;;;;5073973;28;20645;-83
2023/07/26 00:04:30;;;;;;;1.50;1.40;;;19.00;78.50;18.30;95844.00;;;;5087452;28;20226;-80
2023/07/26 00:06:57;;;;;;;1.47;1.37;;;19.00;78.60;18.30;95847.00;;;;5082650;28;20736;-80
2023/07/26 00:09:25;;;;;;;1.83;1.60;;;19.00;78.70;18.30;95849.00;;;;5082794;28;20192;-81
2023/07/26 00:11:52;;;;;;;1.70;1.60;;;19.00;78.50;18.30;95850.00;;;;5090864;28;20731;-81
2023/07/26 00:14:19;;;;;;;1.83;1.73;;;19.00;78.40;18.30;95853.00;;;;5094150;28;20213;-80
2023/07/26 00:16:49;;;;;;;3.10;1.57;;;19.00;78.60;18.30;95856.00;;;;5080420;28;20224;-81
2023/07/26 00:19:19;;;;;;;1.80;1.70;;;19.00;78.50;18.30;95863.00;;;;5077054;28;20688;-82
2023/07/26 00:21:46;;;;;;;1.87;1.77;;;19.00;78.30;18.30;95866.00;;;;5068193;28;20217;-84
2023/07/26 00:24:14;;;;;;;1.53;1.43;;;19.00;78.20;18.30;95872.00;;;;5078217;28;20226;-81
2023/07/26 00:26:44;;;;;;;1.67;1.57;;;19.00;78.10;18.30;95870.00;;;;5083319;28;20684;-81
2023/07/26 00:29:11;;;;;;;1.70;1.60;;;19.00;78.20;18.30;95871.00;;;;5072300;28;20257;-80
2023/07/26 00:31:39;;;;;;;1.70;1.60;;;19.00;78.30;18.30;95877.00;;;;5082252;28;20208;-81
2023/07/26 00:34:07;;;;;;;1.47;1.37;;;19.00;78.60;18.30;95877.00;;;;5075256;28;20696;-80
2023/07/26 00:36:37;;;;;;;1.60;1.50;;;19.00;78.60;18.30;95884.00;;;;5079712;28;20212;-80
2023/07/26 00:39:04;;;;;;;1.57;1.47;;;19.00;78.50;18.30;95879.00;;;;5080400;28;20481;-81
2023/07/26 00:41:31;;;;;;;1.40;1.30;;;19.00;79.30;18.30;95879.00;;;;5088841;28;20224;-80
2023/07/26 00:43:58;;;;;;;1.83;1.57;;;19.00;78.50;18.30;95886.00;;;;5089202;28;20191;-82
2023/07/26 00:46:26;;;;;;;1.80;1.70;;;19.00;78.30;18.20;95892.00;;;;5086435;28;20246;-82
2023/07/26 00:48:53;;;;;;;1.60;1.50;;;19.00;78.20;18.20;95890.00;;;;5085527;28;20187;-80
2023/07/26 00:51:22;;;;;;;2.03;1.40;;;19.00;78.10;18.20;95894.00;;;;5079204;28;20698;-81
2023/07/26 00:53:51;;;;;;;1.50;1.40;;;19.00;78.20;18.20;95902.00;;;;5085560;28;20200;-80
2023/07/26 00:56:19;;;;;;;1.83;1.73;;;19.00;78.30;18.20;95905.00;;;;5087419;28;20298;-80
2023/07/26 00:58:47;;;;;;;2.50;1.57;;;19.00;78.30;18.20;95900.00;;;;5073782;28;20195;-81
2023/07/26 01:01:14;;;;;;;1.60;1.50;;;18.90;78.10;18.20;95911.00;;;;5081630;28;20200;-81
2023/07/26 01:03:41;;;;;;;2.00;1.70;;;19.00;78.00;18.20;95911.00;;;;5081401;28;20759;-81
2023/07/26 01:06:26;;;;;;;1.77;1.60;;;18.90;77.80;18.20;95911.00;;;;5081395;28;20223;-81
2023/07/26 01:09:05;;;;;;;1.83;1.73;;;19.00;77.80;18.20;95918.00;;;;5088226;28;20278;-80
2023/07/26 01:11:43;;;;;;;1.77;1.67;;;18.80;77.70;18.20;95918.00;;;;5094893;28;20215;-83
2023/07/26 01:14:18;;;;;;;1.80;1.70;;;18.90;77.70;18.10;95923.00;;;;5081853;28;20216;-84
2023/07/26 01:16:48;;;;;;;1.83;1.73;;;18.90;77.50;18.10;95915.00;;;;5092623;28;20253;-81
2023/07/26 01:19:17;;;;;;;1.83;1.73;;;18.90;77.80;18.10;95928.00;;;;5104628;28;20240;-83
2023/07/26 01:21:45;;;;;;;4.60;2.00;;;18.90;78.00;18.10;95921.00;;;;5098766;28;20290;-83
2023/07/26 01:24:13;;;;;;;2.27;2.10;;;18.90;77.90;18.10;95920.00;;;;5088996;28;20263;-81
2023/07/26 01:26:40;;;;;;;3.10;2.37;;;18.80;77.60;18.10;95925.00;;;;5085502;28;20234;-80
2023/07/26 01:29:07;;;;;;;2.50;2.30;;;18.90;77.70;18.10;95930.00;;;;5090588;28;20260;-82
2023/07/26 01:31:35;;;;;;;2.30;2.20;;;18.80;77.60;18.10;95936.00;;;;5075473;28;20198;-81
2023/07/26 01:34:05;;;;;;;3.70;2.30;;;18.80;77.60;18.10;95939.00;;;;5082607;28;20806;-81
2023/07/26 01:36:35;;;;;;;2.60;2.30;;;18.80;77.60;18.10;95938.00;;;;5077136;28;20226;-80
2023/07/26 01:39:06;;;;;;;2.77;2.13;;;18.80;77.40;18.10;95938.00;;;;5072113;28;20200;-82
2023/07/26 01:41:33;;;;;;;2.50;2.30;;;18.80;77.60;18.10;95939.00;;;;5080549;28;20199;-81
2023/07/26 01:44:01;;;;;;;2.90;2.23;;;18.80;77.80;18.00;95933.00;;;;5083181;28;20280;-80
2023/07/26 01:46:28;;;;;;;2.63;2.43;;;18.80;77.80;18.00;95931.00;;;;5079380;28;20224;-80
2023/07/26 01:48:55;;;;;;;2.23;2.13;;;18.80;78.00;18.00;95941.00;;;;5073521;28;20231;-83
2023/07/26 01:51:22;;;;;;;2.23;2.03;;;18.80;77.90;18.00;95931.00;;;;5076783;28;20192;-80
2023/07/26 01:53:49;;;;;;;2.43;2.30;;;18.80;77.70;18.00;95932.00;;;;5072678;28;20230;-81
2023/07/26 01:56:18;;;;;;;2.40;2.20;;;18.80;77.80;18.00;95938.00;;;;5089772;28;20219;-81
2023/07/26 01:58:46;;;;;;;2.40;1.97;;;18.70;77.90;18.00;95932.00;;;;5095761;28;20707;-82
2023/07/26 02:01:14;;;;;;;2.30;2.20;;;18.80;77.90;18.00;95940.00;;;;5079032;28;20196;-81
2023/07/26 02:03:41;;;;;;;2.43;2.30;;;18.80;77.90;18.00;95941.00;;;;5072385;28;20232;-82
2023/07/26 02:06:08;;;;;;;2.77;2.17;;;18.70;77.90;18.00;95951.00;;;;5073412;28;20227;-80
2023/07/26 02:08:35;;;;;;;2.30;2.10;;;18.70;77.90;18.00;95953.00;;;;5075521;28;20199;-82
2023/07/26 02:11:02;;;;;;;2.37;2.17;;;18.70;77.80;18.00;95956.00;;;;5096171;28;20188;-81
2023/07/26 02:13:31;;;;;;;2.50;2.30;;;18.70;77.70;18.00;95953.00;;;;5092769;28;20191;-81
2023/07/26 02:15:58;;;;;;;2.30;2.10;;;18.70;77.60;18.00;95963.00;;;;5094626;28;20227;-81
2023/07/26 02:18:26;;;;;;;2.07;1.97;;;18.70;78.20;18.00;95961.00;;;;5088853;28;20200;-82
2023/07/26 02:20:54;;;;;;;2.20;2.10;;;18.70;77.70;18.00;95961.00;;;;5084326;28;20194;-80
2023/07/26 02:23:21;;;;;;;2.50;2.30;;;18.70;77.70;17.90;95973.00;;;;5092346;28;20197;-80
2023/07/26 02:25:49;;;;;;;2.00;1.90;;;18.70;77.60;17.90;95974.00;;;;5085780;28;20227;-80
2023/07/26 02:28:16;;;;;;;2.47;2.27;;;18.70;77.70;17.90;95973.00;;;;5075799;28;20202;-80
2023/07/26 02:30:44;;;;;;;2.33;2.13;;;18.70;78.00;17.90;95971.00;;;;5077666;28;20196;-80
2023/07/26 02:33:12;;;;;;;2.57;2.00;;;18.70;78.40;17.90;95974.00;;;;5080098;28;20187;-81
2023/07/26 02:35:39;;;;;;;2.50;1.80;;;18.70;78.50;17.90;95983.00;;;;5079825;28;20210;-81
2023/07/26 02:38:06;;;;;;;3.00;2.20;;;18.70;78.40;17.90;95987.00;;;;5085152;28;20198;-80
2023/07/26 02:40:33;;;;;;;1.83;1.73;;;18.70;78.40;17.90;95988.00;;;;5092771;28;20191;-80
2023/07/26 02:43:00;;;;;;;3.73;1.90;;;18.70;78.10;17.90;95988.00;;;;5092319;28;20214;-82
2023/07/26 02:45:28;;;;;;;2.10;2.00;;;18.70;77.80;17.90;95996.00;;;;5096638;28;20219;-82
2023/07/26 02:47:56;;;;;;;2.10;1.90;;;18.70;77.70;17.90;95990.00;;;;5067851;28;20184;-81
2023/07/26 02:50:25;;;;;;;1.77;1.67;;;18.60;77.60;17.90;95992.00;;;;5081422;28;20201;-82
2023/07/26 02:52:52;;;;;;;3.27;1.87;;;18.60;77.70;17.80;95993.00;;;;5072427;28;20647;-81
2023/07/26 02:55:21;;;;;;;2.17;2.07;;;18.60;77.50;17.80;95996.00;;;;5080404;28;20206;-81
2023/07/26 02:57:48;;;;;;;2.10;1.77;;;18.60;77.30;17.80;96001.00;;;;5092285;28;20249;-83
2023/07/26 03:00:15;;;;;;;1.63;1.53;;;18.60;77.30;17.80;95999.00;;;;5087762;28;20214;-80
2023/07/26 03:02:43;;;;;;;1.60;1.50;;;18.60;77.50;17.80;96008.00;;;;5079047;28;20202;-81
2023/07/26 03:05:12;;;;;;;1.90;1.80;;;18.60;77.80;17.80;96008.00;;;;5084003;28;20719;-81
2023/07/26 03:07:41;;;;;;;1.70;1.53;;;18.60;77.70;17.80;96013.00;;;;5072815;28;20302;-79
2023/07/26 03:10:09;;;;;;;1.77;1.67;;;18.50;77.30;17.70;96011.00;;;;5079440;28;20219;-83
2023/07/26 03:12:37;;;;;;;2.33;1.60;;;18.50;77.20;17.70;96017.00;;;;5078461;28;20664;-79
2023/07/26 03:15:05;;;;;;;1.40;1.40;;;18.50;77.10;17.70;96018.00;;;;5077368;28;20200;-86
2023/07/26 03:17:33;;;;;;;2.00;1.80;;;18.50;77.10;17.70;96007.00;;;;5074354;28;20298;-79
2023/07/26 03:20:00;;;;;;;1.90;1.80;;;18.50;77.40;17.70;96010.00;;;;5076279;28;20192;-81
2023/07/26 03:22:29;;;;;;;1.87;1.50;;;18.50;77.50;17.70;96011.00;;;;5092126;28;20652;-81
2023/07/26 03:24:57;;;;;;;1.70;1.60;;;18.50;77.50;17.70;96006.00;;;;5067701;28;20675;-81
2023/07/26 03:27:24;;;;;;;1.63;1.53;;;18.50;77.40;17.70;96015.00;;;;5077136;28;20219;-80
2023/07/26 03:29:52;;;;;;;1.93;1.73;;;18.50;77.40;17.70;96016.00;;;;5085283;28;20652;-80
2023/07/26 03:32:19;;;;;;;1.97;1.87;;;18.50;77.50;17.70;96014.00;;;;5092270;28;20582;-80
2023/07/26 03:34:47;;;;;;;2.17;1.97;;;18.50;77.70;17.70;96017.00;;;;5086589;28;20267;-80
2023/07/26 03:37:14;;;;;;;1.70;1.60;;;18.40;77.80;17.70;96021.00;;;;5085900;28;20251;-81
2023/07/26 03:39:43;;;;;;;2.00;1.77;;;18.40;77.90;17.70;96030.00;;;;5064189;28;20279;-80
2023/07/26 03:42:11;;;;;;;2.30;2.10;;;18.40;77.90;17.70;96029.00;;;;5069466;28;20280;-80
2023/07/26 03:44:38;;;;;;;2.03;1.90;;;18.40;77.70;17.70;96032.00;;;;5077039;28;20587;-82
2023/07/26 03:47:08;;;;;;;1.93;1.80;;;18.50;78.00;17.70;96046.00;;;;5081781;28;20245;-81
2023/07/26 03:49:37;;;;;;;1.77;1.67;;;18.50;78.20;17.70;96044.00;;;;5081867;28;20204;-81
2023/07/26 03:52:05;;;;;;;1.77;1.67;;;18.50;78.20;17.70;96037.00;;;;5087666;28;20203;-81
2023/07/26 03:54:32;;;;;;;1.90;1.80;;;18.50;78.30;17.70;96044.00;;;;5094596;28;20199;-82
2023/07/26 03:57:01;;;;;;;2.03;1.40;;;18.50;78.20;17.70;96052.00;;;;5087316;28;20224;-82
2023/07/26 03:59:28;;;;;;;1.83;1.73;;;18.40;77.90;17.70;96053.00;;;;5075856;28;20576;-81
2023/07/26 04:01:56;;;;;;;1.90;1.80;;;18.40;77.90;17.70;96051.00;;;;5081439;28;20278;-80
2023/07/26 04:04:23;;;;;;;2.10;2.00;;;18.40;78.10;17.70;96057.00;;;;5081887;28;20303;-83
2023/07/26 04:06:50;;;;;;;2.00;1.90;;;18.50;78.20;17.70;96052.00;;;;5087789;28;20389;-81
2023/07/26 04:09:18;;;;;;;2.23;2.03;;;18.50;78.00;17.70;96051.00;;;;5059617;28;20201;-81
2023/07/26 04:11:45;;;;;;;2.83;2.03;;;18.50;78.10;17.70;96058.00;;;;5086383;28;20751;-83
2023/07/26 04:14:14;;;;;;;2.20;2.00;;;18.40;77.90;17.70;96066.00;;;;5075542;28;20681;-81
2023/07/26 04:16:41;;;;;;;2.40;2.20;;;18.50;78.10;17.70;96055.00;;;;5082656;28;20219;-83
2023/07/26 04:19:08;;;;;;;2.50;2.30;;;18.50;78.30;17.70;96066.00;;;;5083869;28;20263;-81
2023/07/26 04:21:36;;;;;;;2.20;2.10;;;18.40;79.00;17.70;96074.00;;;;5077503;28;20228;-81
2023/07/26 04:24:03;;;;;;;2.80;2.53;;;18.40;78.30;17.70;96066.00;;;;5084263;28;20557;-82
2023/07/26 04:26:30;;;;;;;2.67;2.03;;;18.40;78.30;17.70;96070.00;;;;5080838;28;20245;-81
2023/07/26 04:28:58;;;;;;;2.93;2.30;;;18.40;78.30;17.70;96074.00;;;;5081538;28;20657;-81
2023/07/26 04:31:27;;;;;;;2.50;2.30;;;18.50;78.30;17.70;96078.00;;;;5058741;28;20196;-81
2023/07/26 04:33:54;;;;;;;2.57;2.37;;;18.40;78.20;17.70;96073.00;;;;5090459;28;20283;-83
2023/07/26 04:36:21;;;;;;;2.63;2.10;;;18.40;78.30;17.70;96084.00;;;;5074008;28;20222;-83
2023/07/26 04:38:49;;;;;;;2.87;2.67;;;18.40;78.40;17.70;96083.00;;;;5084737;28;20195;-84
2023/07/26 04:41:16;;;;;;;2.97;2.77;;;18.40;78.40;17.70;96088.00;;;;5074209;28;20196;-84
2023/07/26 04:43:43;;;;;;;3.23;3.00;;;18.50;78.40;17.70;96094.00;;;;5075225;28;20206;-84
2023/07/26 04:46:11;;;;;;;3.03;2.67;;;18.50;78.20;17.70;96102.00;;;;5085617;28;20215;-85
2023/07/26 04:48:40;;;;;;;2.90;2.70;;;18.50;78.10;17.70;96105.00;;;;5072869;28;20200;-85
2023/07/26 04:51:07;;;;;;;2.60;2.40;;;18.50;78.00;17.80;96101.00;;;;5077421;28;20733;-85
2023/07/26 04:53:35;;;;;;;2.77;2.60;;;18.50;78.10;17.80;96094.00;;;;5076039;28;20214;-83
2023/07/26 04:56:02;;;;;;;3.53;2.83;;;18.50;78.10;17.80;96104.00;;;;5071496;28;20698;-85
2023/07/26 04:58:29;;;;;;;2.63;2.43;;;18.60;78.00;17.80;96104.00;;;;5067679;28;20206;-84
2023/07/26 05:00:56;;;;;;;4.17;2.70;;;18.60;77.80;17.80;96102.00;;;;5068068;28;20196;-85
2023/07/26 05:03:23;;;;;;;2.97;2.67;;;18.60;77.80;17.80;96098.00;;;;5074451;28;20196;-85
2023/07/26 05:05:52;;;;;;;2.87;2.67;;;18.60;77.60;17.80;96101.00;;;;5073255;28;20232;-82
2023/07/26 05:08:20;;;;;;;4.33;3.23;;;18.60;78.30;17.80;96107.00;;;;5076774;28;20287;-84
2023/07/26 05:10:51;;;;;;;3.50;3.30;;;18.60;77.60;17.80;96118.00;;;;5083006;28;20664;-83
2023/07/26 05:13:18;;;;;;;2.93;2.73;;;18.60;77.70;17.80;96118.00;;;;5078707;28;20192;-83
2023/07/26 05:15:45;;;;;;;2.90;2.70;;;18.60;77.40;17.80;96121.00;;;;5093909;28;20210;-84
2023/07/26 05:18:14;;;;;;;3.63;3.13;;;18.60;77.20;17.80;96115.00;;;;5077624;28;20199;-83
2023/07/26 05:20:41;;;;;;;3.17;2.97;;;18.60;77.30;17.80;96130.00;;;;5078417;28;20834;-82
2023/07/26 05:23:10;;;;;;;3.00;2.80;;;18.60;77.50;17.80;96126.00;;;;5078374;28;20264;-84
2023/07/26 05:25:40;;;;;;;2.97;2.77;;;18.70;77.80;17.80;96126.00;;;;5072952;28;20199;-83
2023/07/26 05:28:07;;;;;;;3.20;3.00;;;18.60;77.90;17.90;96139.00;;;;5073876;28;20192;-85
2023/07/26 05:30:39;;;;;;;3.47;3.20;;;18.70;78.00;17.90;96140.00;;;;5073881;28;20191;-84
2023/07/26 05:33:06;;;;;;;3.60;3.30;;;18.70;78.00;17.90;96141.00;;;;5074695;28;20193;-83
2023/07/26 05:35:34;;;;;;;3.30;3.10;;;18.70;77.90;17.90;96144.00;;;;5076435;28;20223;-84
2023/07/26 05:38:02;;;;;;;3.67;3.37;;;18.70;78.10;17.90;96146.00;;;;5077094;28;20202;-80
2023/07/26 05:40:32;;;;;;;3.33;3.03;;;18.70;78.20;18.00;96156.00;;;;5076241;28;20188;-84
2023/07/26 05:42:59;;;;;;;3.10;2.90;;;18.70;78.30;18.00;96155.00;;;;5077623;28;20217;-85
2023/07/26 05:45:26;;;;;;;3.70;3.40;;;18.80;78.40;18.00;96157.00;;;;5080246;28;20206;-83
2023/07/26 05:47:53;;;;;;;3.97;3.57;;;18.80;78.60;18.10;96151.00;;;;5074684;28;20226;-84
2023/07/26 05:50:21;;;;;;;3.40;3.13;;;18.80;78.60;18.10;96152.00;;;;5074613;28;20739;-83
2023/07/26 05:52:48;;;;;;;5.33;3.40;;;18.90;78.50;18.20;96163.00;;;;5077966;28;20583;-83
2023/07/26 05:55:16;;;;;;;3.50;3.20;;;18.90;78.50;18.20;96164.00;;;;5074765;28;20202;-85
2023/07/26 05:57:45;;;;;;;3.37;3.07;;;18.90;78.30;18.20;96168.00;;;;5084149;28;20298;-83
2023/07/26 06:00:14;;;;;;;3.60;3.30;;;19.00;78.10;18.30;96166.00;;;;5086703;28;20325;-82
2023/07/26 06:02:41;;;;;;;3.40;3.20;;;19.00;77.60;18.30;96177.00;;;;5075453;28;20199;-85
2023/07/26 06:05:09;;;;;;;3.90;3.60;;;19.00;77.10;18.30;96176.00;;;;5082921;28;20196;-84
2023/07/26 06:07:37;;;;;;;3.70;3.40;;;19.00;77.30;18.30;96177.00;;;;5081420;28;20224;-85
2023/07/26 06:10:05;;;;;;;3.70;3.40;;;19.00;77.30;18.30;96168.00;;;;5074760;28;20188;-84
2023/07/26 06:12:33;;;;;;;3.63;3.43;;;19.00;77.00;18.30;96182.00;;;;5073922;28;20199;-84
2023/07/26 06:15:01;;;;;;;3.40;3.20;;;19.00;77.00;18.30;96178.00;;;;5072261;28;20215;-84
2023/07/26 06:17:29;;;;;;;4.30;3.90;;;19.00;77.10;18.40;96181.00;;;;5062513;28;20221;-85
2023/07/26 06:19:56;;;;;;;5.50;3.73;;;19.10;77.20;18.40;96186.00;;;;5072543;28;20192;-88
2023/07/26 06:22:23;;;;;;;4.00;3.70;;;19.10;77.10;18.40;96184.00;;;;5067876;28;20200;-85
2023/07/26 06:24:50;;;;;;;4.13;3.73;;;19.10;78.10;18.40;96189.00;;;;5052234;28;20203;-85
2023/07/26 06:27:22;;;;;;;4.10;3.80;;;19.10;77.10;18.50;96189.00;;;;5073683;28;20224;-85
2023/07/26 06:29:50;;;;;;;4.17;3.87;;;19.20;76.50;18.50;96191.00;;;;5073039;28;20204;-85
2023/07/26 06:32:19;;;;;;;3.93;3.63;;;19.20;76.60;18.50;96187.00;;;;5072649;28;20199;-86
2023/07/26 06:34:46;;;;;;;4.40;4.00;;;19.20;76.30;18.50;96198.00;;;;5074851;28;20197;-85
2023/07/26 06:37:13;;;;;;;4.43;4.13;;;19.20;76.30;18.50;96189.00;;;;5071265;28;20875;-86
2023/07/26 06:39:40;;;;;;;4.30;3.90;;;19.20;76.10;18.50;96192.00;;;;5071651;28;20210;-84
2023/07/26 06:42:09;;;;;;;5.03;4.67;;;19.20;76.20;18.50;96196.00;;;;5069185;28;20675;-85
2023/07/26 06:44:38;;;;;;;4.60;4.20;;;19.20;76.10;18.50;96207.00;;;;5071606;28;20200;-85
2023/07/26 06:47:07;;;;;;;4.67;4.33;;;19.30;76.00;18.60;96204.00;;;;5067399;28;20226;-84
2023/07/26 06:49:36;;;;;;;5.50;5.10;;;19.30;76.40;18.60;96209.00;;;;5070953;28;20204;-85
2023/07/26 06:52:04;;;;;;;6.03;4.50;;;19.30;76.30;18.60;96207.00;;;;5083100;28;20192;-85
2023/07/26 06:54:31;;;;;;;5.27;4.67;;;19.30;76.30;18.60;96206.00;;;;5068896;28;20226;-84
2023/07/26 06:56:58;;;;;;;5.37;4.87;;;19.40;76.50;18.70;96207.00;;;;5067360;28;20226;-85
2023/07/26 06:59:26;;;;;;;5.70;5.10;;;19.40;76.40;18.70;96197.00;;;;5075767;28;20191;-84
2023/07/26 07:01:53;;;;;;;5.17;4.83;;;19.40;76.40;18.70;96214.00;;;;5073872;28;20226;-85
2023/07/26 07:04:20;;;;;;;5.37;4.97;;;19.40;76.30;18.80;96212.00;;;;5073196;28;20637;-85
2023/07/26 07:06:49;;;;;;;4.90;4.50;;;19.40;75.80;18.80;96210.00;;;;5073963;28;20224;-85
2023/07/26 07:09:16;;;;;;;4.63;4.23;;;19.50;75.70;18.80;96229.00;;;;5071772;28;20196;-84
2023/07/26 07:11:44;;;;;;;5.13;4.63;;;19.50;75.80;18.80;96223.00;;;;5072404;28;20195;-85
2023/07/26 07:14:11;;;;;;;5.50;5.00;;;19.50;75.90;18.80;96228.00;;;;5080790;28;20188;-85
2023/07/26 07:16:38;;;;;;;5.40;5.03;;;19.50;76.00;18.90;96216.00;;;;5078870;28;20294;-85
2023/07/26 07:19:06;;;;;;;4.53;4.23;;;19.50;75.80;18.90;96223.00;;;;5058618;28;20204;-85
2023/07/26 07:21:33;;;;;;;5.67;4.63;;;19.60;75.30;18.90;96219.00;;;;5080393;28;20198;-84
2023/07/26 07:24:02;;;;;;;6.00;5.00;;;19.60;75.30;18.90;96219.00;;;;5074931;28;20671;-85
2023/07/26 07:26:29;;;;;;;5.10;4.60;;;19.60;74.90;18.90;96221.00;;;;5082632;28;20219;-86
2023/07/26 07:28:56;;;;;;;5.30;4.80;;;19.60;74.70;18.90;96222.00;;;;5071043;28;20209;-87
2023/07/26 07:31:24;;;;;;;4.90;4.50;;;19.60;74.90;18.80;96220.00;;;;5075708;28;20660;-85
2023/07/26 07:33:51;;;;;;;5.37;4.97;;;19.60;75.20;18.90;96227.00;;;;5063782;28;20261;-87
2023/07/26 07:36:19;;;;;;;5.57;5.07;;;19.70;75.10;18.90;96230.00;;;;5074306;28;20213;-85
2023/07/26 07:38:46;;;;;;;5.33;4.93;;;19.60;75.00;18.90;96223.00;;;;5075723;28;20629;-85
2023/07/26 07:41:15;;;;;;;5.60;5.10;;;19.60;75.20;18.90;96227.00;;;;5065276;28;20196;-84
2023/07/26 07:43:42;;;;;;;5.43;5.03;;;19.60;75.40;18.90;96223.00;;;;5085208;28;20227;-85
2023/07/26 07:46:09;;;;;;;6.07;5.43;;;19.60;75.50;18.90;96227.00;;;;5064387;28;20218;-85
2023/07/26 07:48:38;;;;;;;5.33;4.93;;;19.60;75.10;18.90;96230.00;;;;5055268;28;20311;-85
2023/07/26 07:51:05;;;;;;;5.93;5.43;;;19.60;74.40;18.90;96218.00;;;;5065726;28;20307;-87
2023/07/26 07:53:33;;;;;;;5.37;4.87;;;19.60;74.30;19.00;96216.00;;;;5069545;28;20204;-85
2023/07/26 07:56:00;;;;;;;5.33;4.87;;;19.70;74.30;19.00;96221.00;;;;5071350;28;20214;-85
2023/07/26 07:58:30;;;;;;;5.47;4.90;;;19.70;74.20;19.10;96222.00;;;;5079303;28;20656;-85
2023/07/26 08:00:59;;;;;;;6.60;5.07;;;19.70;74.50;19.10;96229.00;;;;5067516;28;20199;-85
2023/07/26 08:03:26;;;;;;;5.77;5.27;;;19.80;74.60;19.20;96228.00;;;;5067408;28;20245;-85
2023/07/26 08:05:54;;;;;;;5.63;5.13;;;19.80;74.30;19.20;96231.00;;;;5080721;28;20215;-86
2023/07/26 08:08:22;;;;;;;5.03;4.60;;;19.90;74.00;19.20;96238.00;;;;5070361;28;20225;-85
2023/07/26 08:10:50;;;;;;;5.70;5.30;;;19.90;74.00;19.20;96231.00;;;;5051246;28;20923;-86
2023/07/26 08:13:17;;;;;;;5.63;5.13;;;19.90;73.80;19.20;96237.00;;;;5067833;28;20200;-91
2023/07/26 08:15:46;;;;;;;5.37;4.87;;;20.00;74.00;19.30;96233.00;;;;5072142;28;20196;-87
2023/07/26 08:18:13;;;;;;;5.73;4.80;;;20.00;73.70;19.30;96238.00;;;;5076126;28;20206;-83
2023/07/26 08:20:40;;;;;;;5.53;4.90;;;20.00;73.60;19.30;96229.00;;;;5071356;28;20202;-83
2023/07/26 08:23:08;;;;;;;5.30;4.90;;;20.00;73.30;19.30;96241.00;;;;5070380;28;20192;-84
2023/07/26 08:25:35;;;;;;;6.00;5.37;;;20.00;73.30;19.30;96237.00;;;;5067925;28;20204;-85
2023/07/26 08:28:02;;;;;;;7.27;5.53;;;20.00;73.40;19.30;96242.00;;;;5069222;28;20600;-85
2023/07/26 08:30:29;;;;;;;6.00;5.50;;;20.00;73.50;19.30;96237.00;;;;5070696;28;20199;-84
2023/07/26 08:32:58;;;;;;;5.40;4.90;;;20.00;73.70;19.30;96244.00;;;;5071712;28;20192;-85
2023/07/26 08:35:25;;;;;;;5.33;4.93;;;20.00;73.70;19.30;96237.00;;;;5070247;28;20591;-84
2023/07/26 08:37:52;;;;;;;5.20;4.80;;;20.10;74.00;19.30;96243.00;;;;5073380;28;20588;-86
2023/07/26 08:40:21;;;;;;;4.80;4.50;;;20.10;73.70;19.30;96241.00;;;;5073511;28;20283;-83
2023/07/26 08:42:48;;;;;;;7.07;4.80;;;20.00;73.40;19.30;96235.00;;;;5070950;28;20215;-85
2023/07/26 08:45:17;;;;;;;5.27;4.87;;;20.00;73.10;19.30;96241.00;;;;5071742;28;20203;-86
2023/07/26 08:47:45;;;;;;;5.00;4.70;;;20.00;73.10;19.30;96241.00;;;;5068425;28;20281;-85
2023/07/26 08:50:14;;;;;;;5.00;4.47;;;20.00;72.90;19.30;96241.00;;;;5065910;28;20187;-84
2023/07/26 08:52:42;;;;;;;4.47;4.07;;;20.00;72.50;19.30;96248.00;;;;5067489;28;20203;-84
2023/07/26 08:55:11;;;;;;;4.53;4.23;;;20.10;73.00;19.40;96242.00;;;;5068599;28;20198;-84
2023/07/26 08:57:38;;;;;;;4.40;4.10;;;20.10;73.50;19.50;96237.00;;;;5067712;28;20220;-86
2023/07/26 09:00:07;;;;;;;7.80;4.70;;;20.20;73.90;19.60;96237.00;;;;5065643;28;20208;-86
2023/07/26 09:02:37;;;;;;;3.93;3.67;;;20.20;73.70;19.70;96249.00;;;;5061910;28;20278;-86
2023/07/26 09:05:05;;;;;;;3.97;3.67;;;20.30;73.60;19.70;96247.00;;;;5066560;28;20195;-85
2023/07/26 09:07:34;;;;;;;3.97;3.67;;;20.40;73.30;19.80;96247.00;;;;5071043;28;20316;-86
2023/07/26 09:10:01;;;;;;;4.37;3.83;;;20.40;72.60;19.80;96242.00;;;;5071187;28;20195;-85
2023/07/26 09:12:29;;;;;;;4.50;4.17;;;20.50;72.80;19.80;96232.00;;;;5083180;28;20226;-85
2023/07/26 09:15:03;;;;;;;3.97;3.67;;;20.50;72.20;19.80;96241.00;;;;5061886;28;20189;-86
2023/07/26 09:17:44;;;;;;;3.60;3.30;;;20.60;71.50;19.80;96242.00;;;;5071257;28;20598;-87
2023/07/26 09:20:23;;;;;;;3.63;3.43;;;20.60;71.70;19.90;96249.00;;;;5064217;28;20203;-85
2023/07/26 09:23:00;;;;;;;3.33;3.03;;;20.60;71.10;19.90;96244.00;;;;5064818;28;21767;-84
2023/07/26 09:25:37;;;;;;;3.30;3.00;;;20.60;70.50;19.90;96246.00;;;;5068832;28;20203;-84
2023/07/26 09:28:05;;;;;;;2.77;2.57;;;20.60;71.00;19.90;96239.00;;;;5069026;28;20244;-85
2023/07/26 09:30:37;;;;;;;2.80;2.67;;;20.70;71.50;20.00;96240.00;;;;5077074;28;20206;-84
2023/07/26 09:33:06;;;;;;;2.90;2.43;;;20.70;71.90;20.10;96245.00;;;;5079953;28;20192;-86
2023/07/26 09:35:41;;;;;;;4.70;2.97;;;20.70;71.60;20.10;96262.00;;;;5070498;28;20233;-84
2023/07/26 09:38:15;;;;;;;2.60;2.23;;;20.80;71.90;20.20;96249.00;;;;5075583;28;20253;-85
2023/07/26 09:40:43;;;;;;;3.10;2.50;;;20.90;71.40;20.30;96248.00;;;;5087912;28;20636;-85
2023/07/26 09:43:10;;;;;;;2.47;2.23;;;20.90;71.40;20.30;96248.00;;;;5068190;28;20760;-85
2023/07/26 09:45:38;;;;;;;2.13;1.93;;;20.90;70.60;20.30;96233.00;;;;5068879;28;20210;-85
2023/07/26 09:48:08;;;;;;;3.03;2.40;;;21.00;70.80;20.40;96234.00;;;;5067727;28;20230;-84
2023/07/26 09:50:40;;;;;;;2.80;2.00;;;21.00;70.40;20.50;96227.00;;;;5072978;28;20206;-85
2023/07/26 09:53:07;;;;;;;2.60;2.20;;;21.10;70.70;20.60;96235.00;;;;5064091;28;20200;-84
2023/07/26 09:55:36;;;;;;;2.10;1.90;;;21.20;71.10;20.70;96234.00;;;;5082744;28;20295;-84
2023/07/26 09:58:04;;;;;;;1.67;1.57;;;21.30;71.50;20.80;96230.00;;;;5090496;28;20196;-85
2023/07/26 10:00:33;;;;;;;2.10;1.87;;;21.40;71.00;21.00;96220.00;;;;5081638;28;20646;-84
2023/07/26 10:03:05;;;;;;;1.70;1.60;;;21.60;70.60;21.10;96231.00;;;;5078619;28;20200;-84
2023/07/26 10:05:39;;;;;;;1.60;1.50;;;21.80;70.50;21.20;96231.00;;;;5069091;28;20192;-86
2023/07/26 10:08:07;;;;;;;1.73;1.63;;;21.90;69.60;21.30;96234.00;;;;5066238;28;20216;-85
2023/07/26 10:10:36;;;;;;;1.60;1.50;;;22.10;69.60;21.50;96223.00;;;;5069061;28;20224;-84
2023/07/26 10:13:05;;;;;;;1.40;1.27;;;22.20;68.60;21.60;96218.00;;;;5070467;28;20292;-85
2023/07/26 10:15:35;;;;;;;1.57;1.40;;;22.40;67.70;21.70;96219.00;;;;5072040;28;20683;-85
2023/07/26 10:18:03;;;;;;;1.47;1.37;;;22.50;67.60;21.90;96220.00;;;;5071198;28;20211;-84
2023/07/26 10:20:31;;;;;;;1.50;1.40;;;22.70;67.50;22.00;96211.00;;;;5073265;28;20609;-85
2023/07/26 10:23:05;;;;;;;1.30;1.10;;;22.80;66.20;22.10;96212.00;;;;5074693;28;20215;-85
2023/07/26 10:25:35;;;;;;;1.37;1.20;;;22.90;66.00;22.20;96210.00;;;;5067875;28;20661;-84
2023/07/26 10:28:03;;;;;;;3.43;1.30;;;23.10;65.90;22.30;96210.00;;;;5068869;28;20219;-84
2023/07/26 10:30:31;;;;;;;1.97;1.40;;;23.20;64.90;22.30;96213.00;;;;5070387;28;20195;-87
2023/07/26 10:33:01;;;;;;;1.70;1.30;;;23.20;64.60;22.30;96205.00;;;;5068954;28;20280;-87
2023/07/26 10:35:31;;;;;;;1.53;1.40;;;23.20;64.60;22.50;96221.00;;;;5074461;28;20195;-85
2023/07/26 10:38:00;;;;;;;1.60;1.40;;;23.30;64.80;22.60;96214.00;;;;5070067;28;20204;-86
2023/07/26 10:40:36;;;;;;;1.27;1.13;;;23.40;64.20;22.60;96215.00;;;;5080861;28;20213;-87
2023/07/26 10:43:33;;;;;;;2.13;1.60;;;23.50;63.00;22.60;96213.00;;;;5076495;28;20221;-85
2023/07/26 10:46:10;;;;;;;1.33;1.23;;;23.50;61.40;22.60;96219.00;;;;5078774;28;20213;-85
2023/07/26 10:48:40;;;;;;;0.97;0.90;;;23.50;61.40;22.60;96227.00;;;;5070353;28;20234;-86
2023/07/26 10:51:26;;;;;;;0.93;0.83;;;23.50;60.70;22.40;96213.00;;;;5062632;28;20193;-86
2023/07/26 10:53:54;;;;;;;1.63;0.87;;;23.40;58.80;22.30;96205.00;;;;5074260;28;20251;-85
2023/07/26 10:56:27;;;;;;;1.30;1.00;;;23.30;60.10;22.20;96221.00;;;;5066359;28;20271;-84
2023/07/26 10:58:56;;;;;;;0.90;0.90;;;23.20;60.00;22.10;96213.00;;;;5066596;28;20203;-86
2023/07/26 11:01:38;;;;;;;1.17;0.83;;;23.10;60.80;21.90;96215.00;;;;5067933;28;20287;-84